sensor_id;sensor_type;location;lat;lon;timestamp;P1;durP1;ratioP1;P2;durP2;ratioP2
57303;SDS011;43150;50.986;18.208;2023-10-19T00:00:32;28.90;;;17.90;;
57303;SDS011;43150;50.986;18.208;2023-10-19T00:03:02;28.50;;;17.70;;
57303;SDS011;43150;50.986;18.208;2023-10-19T00:05:30;28.90;;;16.60;;
57303;SDS011;43150;50.986;18.208;2023-10-19T00:07:57;28.80;;;17.80;;
57303;SDS011;43150;50.986;18.208;2023-10-19T00:10:24;34.10;;;18.00;;
57303;SDS011;43150;50.986;18.208;2023-10-19T00:12:54;30.10;;;19.10;;
57303;SDS011;43150;50.986;18.208;2023-10-19T00:15:25;30.50;;;15.50;;
57303;SDS011;43150;50.986;18.208;2023-10-19T00:17:55;31.40;;;17.80;;
57303;SDS011;43150;50.986;18.208;2023-10-19T00:20:21;32.30;;;17.50;;
57303;SDS011;43150;50.986;18.208;2023-10-19T00:23:00;32.50;;;17.20;;
57303;SDS011;43150;50.986;18.208;2023-10-19T00:25:31;34.00;;;18.90;;
57303;SDS011;43150;50.986;18.208;2023-10-19T00:27:58;28.30;;;16.10;;
57303;SDS011;43150;50.986;18.208;2023-10-19T00:30:25;29.90;;;16.90;;
57303;SDS011;43150;50.986;18.208;2023-10-19T00:32:56;34.00;;;18.90;;
57303;SDS011;43150;50.986;18.208;2023-10-19T00:35:22;28.50;;;16.50;;
57303;SDS011;43150;50.986;18.208;2023-10-19T00:37:59;31.00;;;18.60;;
57303;SDS011;43150;50.986;18.208;2023-10-19T00:40:52;31.20;;;18.00;;
57303;SDS011;43150;50.986;18.208;2023-10-19T00:43:37;29.90;;;16.10;;
57303;SDS011;43150;50.986;18.208;2023-10-19T00:46:11;30.80;;;17.40;;
57303;SDS011;43150;50.986;18.208;2023-10-19T00:48:47;26.80;;;16.60;;
57303;SDS011;43150;50.986;18.208;2023-10-19T00:51:16;33.40;;;17.00;;
57303;SDS011;43150;50.986;18.208;2023-10-19T00:53:58;33.90;;;17.80;;
57303;SDS011;43150;50.986;18.208;2023-10-19T00:56:25;26.00;;;15.10;;
57303;SDS011;43150;50.986;18.208;2023-10-19T00:58:57;30.00;;;18.50;;
57303;SDS011;43150;50.986;18.208;2023-10-19T01:01:37;32.50;;;17.30;;
57303;SDS011;43150;50.986;18.208;2023-10-19T01:04:09;26.30;;;14.80;;
57303;SDS011;43150;50.986;18.208;2023-10-19T01:06:42;29.70;;;17.90;;
57303;SDS011;43150;50.986;18.208;2023-10-19T01:09:25;30.60;;;17.00;;
57303;SDS011;43150;50.986;18.208;2023-10-19T01:11:53;30.50;;;18.00;;
57303;SDS011;43150;50.986;18.208;2023-10-19T01:14:22;30.90;;;17.90;;
57303;SDS011;43150;50.986;18.208;2023-10-19T01:16:53;33.00;;;18.20;;
57303;SDS011;43150;50.986;18.208;2023-10-19T01:19:22;29.10;;;17.30;;
57303;SDS011;43150;50.986;18.208;2023-10-19T01:21:48;31.90;;;19.50;;
57303;SDS011;43150;50.986;18.208;2023-10-19T01:24:19;31.70;;;17.00;;
57303;SDS011;43150;50.986;18.208;2023-10-19T01:26:49;31.40;;;17.80;;
57303;SDS011;43150;50.986;18.208;2023-10-19T01:29:15;28.80;;;17.80;;
57303;SDS011;43150;50.986;18.208;2023-10-19T01:31:43;33.80;;;19.10;;
57303;SDS011;43150;50.986;18.208;2023-10-19T01:34:27;36.00;;;20.50;;
57303;SDS011;43150;50.986;18.208;2023-10-19T01:36:52;31.40;;;19.00;;
57303;SDS011;43150;50.986;18.208;2023-10-19T01:39:20;39.50;;;18.90;;
57303;SDS011;43150;50.986;18.208;2023-10-19T01:41:45;33.00;;;17.50;;
57303;SDS011;43150;50.986;18.208;2023-10-19T01:44:11;30.80;;;18.00;;
57303;SDS011;43150;50.986;18.208;2023-10-19T01:46:41;34.00;;;19.90;;
57303;SDS011;43150;50.986;18.208;2023-10-19T01:49:09;34.90;;;20.40;;
57303;SDS011;43150;50.986;18.208;2023-10-19T01:51:34;31.00;;;19.20;;
57303;SDS011;43150;50.986;18.208;2023-10-19T01:54:08;30.90;;;18.70;;
57303;SDS011;43150;50.986;18.208;2023-10-19T01:56:35;37.90;;;19.20;;
57303;SDS011;43150;50.986;18.208;2023-10-19T01:59:04;31.20;;;19.10;;
57303;SDS011;43150;50.986;18.208;2023-10-19T02:01:30;34.00;;;19.60;;
57303;SDS011;43150;50.986;18.208;2023-10-19T02:04:03;32.50;;;19.60;;
57303;SDS011;43150;50.986;18.208;2023-10-19T02:06:31;31.30;;;17.40;;
57303;SDS011;43150;50.986;18.208;2023-10-19T02:09:11;32.60;;;18.10;;
57303;SDS011;43150;50.986;18.208;2023-10-19T02:14:12;33.20;;;19.40;;
57303;SDS011;43150;50.986;18.208;2023-10-19T02:16:41;29.10;;;18.40;;
57303;SDS011;43150;50.986;18.208;2023-10-19T02:19:08;33.60;;;18.70;;
57303;SDS011;43150;50.986;18.208;2023-10-19T02:21:34;30.10;;;15.10;;
57303;SDS011;43150;50.986;18.208;2023-10-19T02:24:05;28.50;;;16.40;;
57303;SDS011;43150;50.986;18.208;2023-10-19T02:26:32;36.30;;;16.60;;
57303;SDS011;43150;50.986;18.208;2023-10-19T02:28:58;25.20;;;15.60;;
57303;SDS011;43150;50.986;18.208;2023-10-19T02:31:25;32.00;;;16.70;;
57303;SDS011;43150;50.986;18.208;2023-10-19T02:33:51;24.80;;;15.00;;
57303;SDS011;43150;50.986;18.208;2023-10-19T02:36:29;36.00;;;18.10;;
57303;SDS011;43150;50.986;18.208;2023-10-19T02:38:56;30.70;;;17.20;;
57303;SDS011;43150;50.986;18.208;2023-10-19T02:41:24;24.00;;;14.60;;
57303;SDS011;43150;50.986;18.208;2023-10-19T02:43:50;22.40;;;13.40;;
57303;SDS011;43150;50.986;18.208;2023-10-19T02:46:33;33.60;;;15.40;;
57303;SDS011;43150;50.986;18.208;2023-10-19T02:49:02;22.90;;;12.50;;
57303;SDS011;43150;50.986;18.208;2023-10-19T02:51:29;21.10;;;12.40;;
57303;SDS011;43150;50.986;18.208;2023-10-19T02:53:55;29.60;;;15.00;;
57303;SDS011;43150;50.986;18.208;2023-10-19T02:56:21;28.70;;;16.00;;
57303;SDS011;43150;50.986;18.208;2023-10-19T02:58:49;31.50;;;15.40;;
57303;SDS011;43150;50.986;18.208;2023-10-19T03:01:15;26.50;;;15.40;;
57303;SDS011;43150;50.986;18.208;2023-10-19T03:06:14;23.20;;;12.60;;
57303;SDS011;43150;50.986;18.208;2023-10-19T03:08:40;25.90;;;14.00;;
57303;SDS011;43150;50.986;18.208;2023-10-19T03:11:05;29.10;;;15.00;;
57303;SDS011;43150;50.986;18.208;2023-10-19T03:13:32;22.40;;;14.10;;
57303;SDS011;43150;50.986;18.208;2023-10-19T03:15:58;24.40;;;15.10;;
57303;SDS011;43150;50.986;18.208;2023-10-19T03:18:26;21.40;;;12.40;;
57303;SDS011;43150;50.986;18.208;2023-10-19T03:20:52;26.20;;;11.80;;
57303;SDS011;43150;50.986;18.208;2023-10-19T03:23:18;20.30;;;12.00;;
57303;SDS011;43150;50.986;18.208;2023-10-19T03:25:43;16.80;;;9.00;;
57303;SDS011;43150;50.986;18.208;2023-10-19T03:28:35;23.90;;;13.80;;
57303;SDS011;43150;50.986;18.208;2023-10-19T03:31:00;25.40;;;14.50;;
57303;SDS011;43150;50.986;18.208;2023-10-19T03:33:26;21.90;;;12.60;;
57303;SDS011;43150;50.986;18.208;2023-10-19T03:35:53;23.60;;;13.70;;
57303;SDS011;43150;50.986;18.208;2023-10-19T03:38:19;28.30;;;15.30;;
57303;SDS011;43150;50.986;18.208;2023-10-19T03:40:48;24.50;;;15.30;;
57303;SDS011;43150;50.986;18.208;2023-10-19T03:43:19;24.40;;;15.20;;
57303;SDS011;43150;50.986;18.208;2023-10-19T03:45:47;25.60;;;13.70;;
57303;SDS011;43150;50.986;18.208;2023-10-19T03:48:18;22.80;;;14.30;;
57303;SDS011;43150;50.986;18.208;2023-10-19T03:50:50;22.00;;;13.60;;
57303;SDS011;43150;50.986;18.208;2023-10-19T03:53:17;26.70;;;15.50;;
57303;SDS011;43150;50.986;18.208;2023-10-19T03:55:43;20.50;;;12.60;;
57303;SDS011;43150;50.986;18.208;2023-10-19T03:58:09;19.90;;;9.50;;
57303;SDS011;43150;50.986;18.208;2023-10-19T04:00:37;24.50;;;14.20;;
57303;SDS011;43150;50.986;18.208;2023-10-19T04:03:03;22.70;;;13.40;;
57303;SDS011;43150;50.986;18.208;2023-10-19T04:05:29;19.80;;;10.40;;
57303;SDS011;43150;50.986;18.208;2023-10-19T04:07:56;22.60;;;12.50;;
57303;SDS011;43150;50.986;18.208;2023-10-19T04:10:26;25.10;;;12.50;;
57303;SDS011;43150;50.986;18.208;2023-10-19T04:13:00;20.30;;;10.80;;
57303;SDS011;43150;50.986;18.208;2023-10-19T04:15:27;13.70;;;8.00;;
57303;SDS011;43150;50.986;18.208;2023-10-19T04:17:54;21.80;;;11.60;;
57303;SDS011;43150;50.986;18.208;2023-10-19T04:20:24;19.60;;;11.80;;
57303;SDS011;43150;50.986;18.208;2023-10-19T04:22:53;23.70;;;14.10;;
57303;SDS011;43150;50.986;18.208;2023-10-19T04:25:18;17.80;;;10.80;;
57303;SDS011;43150;50.986;18.208;2023-10-19T04:27:45;22.30;;;12.20;;
57303;SDS011;43150;50.986;18.208;2023-10-19T04:30:12;21.20;;;12.00;;
57303;SDS011;43150;50.986;18.208;2023-10-19T04:32:47;19.90;;;11.10;;
57303;SDS011;43150;50.986;18.208;2023-10-19T04:35:14;26.30;;;14.30;;
57303;SDS011;43150;50.986;18.208;2023-10-19T04:40:11;27.20;;;14.00;;
57303;SDS011;43150;50.986;18.208;2023-10-19T04:42:37;21.20;;;12.40;;
57303;SDS011;43150;50.986;18.208;2023-10-19T04:45:03;22.70;;;12.80;;
57303;SDS011;43150;50.986;18.208;2023-10-19T04:47:30;21.90;;;12.30;;
57303;SDS011;43150;50.986;18.208;2023-10-19T04:49:56;20.60;;;11.00;;
57303;SDS011;43150;50.986;18.208;2023-10-19T04:52:21;22.30;;;12.30;;
57303;SDS011;43150;50.986;18.208;2023-10-19T04:54:47;18.80;;;11.30;;
57303;SDS011;43150;50.986;18.208;2023-10-19T04:57:12;16.10;;;9.60;;
57303;SDS011;43150;50.986;18.208;2023-10-19T04:59:38;17.70;;;10.40;;
57303;SDS011;43150;50.986;18.208;2023-10-19T05:02:03;17.30;;;9.40;;
57303;SDS011;43150;50.986;18.208;2023-10-19T05:04:31;16.80;;;9.80;;
57303;SDS011;43150;50.986;18.208;2023-10-19T05:06:56;15.70;;;8.60;;
57303;SDS011;43150;50.986;18.208;2023-10-19T05:09:22;16.90;;;9.50;;
57303;SDS011;43150;50.986;18.208;2023-10-19T05:11:47;16.60;;;9.60;;
57303;SDS011;43150;50.986;18.208;2023-10-19T05:14:13;16.40;;;9.70;;
57303;SDS011;43150;50.986;18.208;2023-10-19T05:16:41;16.60;;;9.50;;
57303;SDS011;43150;50.986;18.208;2023-10-19T05:19:07;15.50;;;9.00;;
57303;SDS011;43150;50.986;18.208;2023-10-19T05:21:33;12.40;;;8.00;;
57303;SDS011;43150;50.986;18.208;2023-10-19T05:23:59;16.30;;;9.80;;
57303;SDS011;43150;50.986;18.208;2023-10-19T05:26:25;16.00;;;9.20;;
57303;SDS011;43150;50.986;18.208;2023-10-19T05:28:51;14.00;;;9.30;;
57303;SDS011;43150;50.986;18.208;2023-10-19T05:31:16;16.70;;;8.00;;
57303;SDS011;43150;50.986;18.208;2023-10-19T05:33:42;16.20;;;10.80;;
57303;SDS011;43150;50.986;18.208;2023-10-19T05:36:08;18.40;;;10.40;;
57303;SDS011;43150;50.986;18.208;2023-10-19T05:38:34;16.50;;;9.50;;
57303;SDS011;43150;50.986;18.208;2023-10-19T05:40:59;15.70;;;9.60;;
57303;SDS011;43150;50.986;18.208;2023-10-19T05:43:25;19.40;;;12.10;;
57303;SDS011;43150;50.986;18.208;2023-10-19T05:45:51;20.40;;;11.80;;
57303;SDS011;43150;50.986;18.208;2023-10-19T05:48:17;20.20;;;11.30;;
57303;SDS011;43150;50.986;18.208;2023-10-19T05:50:42;25.90;;;14.60;;
57303;SDS011;43150;50.986;18.208;2023-10-19T05:53:08;19.10;;;11.70;;
57303;SDS011;43150;50.986;18.208;2023-10-19T05:55:34;26.90;;;16.00;;
57303;SDS011;43150;50.986;18.208;2023-10-19T05:58:01;25.90;;;14.30;;
57303;SDS011;43150;50.986;18.208;2023-10-19T06:00:29;20.60;;;12.10;;
57303;SDS011;43150;50.986;18.208;2023-10-19T06:02:55;22.50;;;13.00;;
57303;SDS011;43150;50.986;18.208;2023-10-19T06:05:22;24.40;;;13.80;;
57303;SDS011;43150;50.986;18.208;2023-10-19T06:07:49;28.30;;;15.20;;
57303;SDS011;43150;50.986;18.208;2023-10-19T06:10:19;27.10;;;14.10;;
57303;SDS011;43150;50.986;18.208;2023-10-19T06:12:46;26.00;;;14.80;;
57303;SDS011;43150;50.986;18.208;2023-10-19T06:15:12;22.70;;;13.70;;
57303;SDS011;43150;50.986;18.208;2023-10-19T06:17:41;24.80;;;14.00;;
57303;SDS011;43150;50.986;18.208;2023-10-19T06:20:07;25.20;;;14.70;;
57303;SDS011;43150;50.986;18.208;2023-10-19T06:22:37;19.40;;;12.70;;
57303;SDS011;43150;50.986;18.208;2023-10-19T06:25:03;23.90;;;14.10;;
57303;SDS011;43150;50.986;18.208;2023-10-19T06:27:30;28.70;;;16.90;;
57303;SDS011;43150;50.986;18.208;2023-10-19T06:29:56;20.20;;;12.30;;
57303;SDS011;43150;50.986;18.208;2023-10-19T06:32:22;24.10;;;14.40;;
57303;SDS011;43150;50.986;18.208;2023-10-19T06:34:48;22.10;;;13.00;;
57303;SDS011;43150;50.986;18.208;2023-10-19T06:37:13;20.20;;;13.60;;
57303;SDS011;43150;50.986;18.208;2023-10-19T06:39:39;25.80;;;13.10;;
57303;SDS011;43150;50.986;18.208;2023-10-19T06:42:08;18.10;;;11.10;;
57303;SDS011;43150;50.986;18.208;2023-10-19T06:44:40;16.40;;;9.30;;
57303;SDS011;43150;50.986;18.208;2023-10-19T06:47:07;20.40;;;10.90;;
57303;SDS011;43150;50.986;18.208;2023-10-19T06:49:32;20.30;;;10.90;;
57303;SDS011;43150;50.986;18.208;2023-10-19T06:51:59;15.50;;;10.50;;
57303;SDS011;43150;50.986;18.208;2023-10-19T06:54:25;17.70;;;11.50;;
57303;SDS011;43150;50.986;18.208;2023-10-19T06:56:53;15.50;;;10.10;;
57303;SDS011;43150;50.986;18.208;2023-10-19T06:59:18;22.30;;;13.20;;
57303;SDS011;43150;50.986;18.208;2023-10-19T07:01:44;21.50;;;13.80;;
57303;SDS011;43150;50.986;18.208;2023-10-19T07:04:09;17.70;;;10.00;;
57303;SDS011;43150;50.986;18.208;2023-10-19T07:06:35;20.70;;;12.30;;
57303;SDS011;43150;50.986;18.208;2023-10-19T07:09:00;18.60;;;11.70;;
57303;SDS011;43150;50.986;18.208;2023-10-19T07:11:29;21.40;;;11.50;;
57303;SDS011;43150;50.986;18.208;2023-10-19T07:13:54;16.20;;;9.60;;
57303;SDS011;43150;50.986;18.208;2023-10-19T07:16:20;18.60;;;11.20;;
57303;SDS011;43150;50.986;18.208;2023-10-19T07:18:45;19.00;;;11.70;;
57303;SDS011;43150;50.986;18.208;2023-10-19T07:21:12;18.60;;;10.50;;
57303;SDS011;43150;50.986;18.208;2023-10-19T07:23:38;21.40;;;13.40;;
57303;SDS011;43150;50.986;18.208;2023-10-19T07:26:03;30.70;;;16.30;;
57303;SDS011;43150;50.986;18.208;2023-10-19T07:28:29;22.70;;;15.00;;
57303;SDS011;43150;50.986;18.208;2023-10-19T07:30:56;28.40;;;14.70;;
57303;SDS011;43150;50.986;18.208;2023-10-19T07:33:22;19.40;;;13.80;;
57303;SDS011;43150;50.986;18.208;2023-10-19T07:35:48;32.50;;;27.00;;
57303;SDS011;43150;50.986;18.208;2023-10-19T07:38:20;28.10;;;13.50;;
57303;SDS011;43150;50.986;18.208;2023-10-19T07:40:47;32.50;;;18.50;;
57303;SDS011;43150;50.986;18.208;2023-10-19T07:43:13;21.50;;;12.90;;
57303;SDS011;43150;50.986;18.208;2023-10-19T07:45:38;16.60;;;10.00;;
57303;SDS011;43150;50.986;18.208;2023-10-19T07:48:04;16.10;;;10.40;;
57303;SDS011;43150;50.986;18.208;2023-10-19T07:50:36;15.70;;;9.30;;
57303;SDS011;43150;50.986;18.208;2023-10-19T07:53:02;15.00;;;10.20;;
57303;SDS011;43150;50.986;18.208;2023-10-19T07:55:28;17.10;;;14.80;;
57303;SDS011;43150;50.986;18.208;2023-10-19T07:57:57;21.20;;;11.50;;
57303;SDS011;43150;50.986;18.208;2023-10-19T08:00:25;20.00;;;15.50;;
57303;SDS011;43150;50.986;18.208;2023-10-19T08:02:54;17.70;;;10.10;;
57303;SDS011;43150;50.986;18.208;2023-10-19T08:05:20;17.70;;;10.20;;
57303;SDS011;43150;50.986;18.208;2023-10-19T08:07:46;18.40;;;10.60;;
57303;SDS011;43150;50.986;18.208;2023-10-19T08:10:15;16.20;;;10.20;;
57303;SDS011;43150;50.986;18.208;2023-10-19T08:12:41;19.20;;;10.50;;
57303;SDS011;43150;50.986;18.208;2023-10-19T08:15:07;19.60;;;10.80;;
57303;SDS011;43150;50.986;18.208;2023-10-19T08:17:33;17.90;;;10.40;;
57303;SDS011;43150;50.986;18.208;2023-10-19T08:19:59;17.50;;;10.70;;
57303;SDS011;43150;50.986;18.208;2023-10-19T08:22:28;17.10;;;10.30;;
57303;SDS011;43150;50.986;18.208;2023-10-19T08:24:55;19.30;;;10.40;;
57303;SDS011;43150;50.986;18.208;2023-10-19T08:27:21;20.10;;;10.90;;
57303;SDS011;43150;50.986;18.208;2023-10-19T08:29:46;22.40;;;11.50;;
57303;SDS011;43150;50.986;18.208;2023-10-19T08:32:12;15.50;;;9.40;;
57303;SDS011;43150;50.986;18.208;2023-10-19T08:34:39;20.80;;;16.30;;
57303;SDS011;43150;50.986;18.208;2023-10-19T08:37:06;21.20;;;9.20;;
57303;SDS011;43150;50.986;18.208;2023-10-19T08:39:34;23.10;;;11.70;;
57303;SDS011;43150;50.986;18.208;2023-10-19T08:42:04;21.20;;;17.50;;
57303;SDS011;43150;50.986;18.208;2023-10-19T08:44:30;24.60;;;12.90;;
57303;SDS011;43150;50.986;18.208;2023-10-19T08:46:55;18.60;;;11.80;;
57303;SDS011;43150;50.986;18.208;2023-10-19T08:49:22;19.80;;;12.90;;
57303;SDS011;43150;50.986;18.208;2023-10-19T08:51:48;17.60;;;11.80;;
57303;SDS011;43150;50.986;18.208;2023-10-19T08:54:14;25.30;;;13.80;;
57303;SDS011;43150;50.986;18.208;2023-10-19T08:56:40;21.90;;;15.30;;
57303;SDS011;43150;50.986;18.208;2023-10-19T08:59:13;22.00;;;12.80;;
57303;SDS011;43150;50.986;18.208;2023-10-19T09:01:40;25.90;;;21.50;;
57303;SDS011;43150;50.986;18.208;2023-10-19T09:04:09;23.10;;;14.30;;
57303;SDS011;43150;50.986;18.208;2023-10-19T09:06:35;31.50;;;16.50;;
57303;SDS011;43150;50.986;18.208;2023-10-19T09:09:11;24.70;;;14.40;;
57303;SDS011;43150;50.986;18.208;2023-10-19T09:11:45;26.90;;;12.90;;
57303;SDS011;43150;50.986;18.208;2023-10-19T09:14:12;21.70;;;12.90;;
57303;SDS011;43150;50.986;18.208;2023-10-19T09:16:38;22.40;;;12.80;;
57303;SDS011;43150;50.986;18.208;2023-10-19T09:19:04;25.50;;;20.80;;
57303;SDS011;43150;50.986;18.208;2023-10-19T09:21:31;25.40;;;13.10;;
57303;SDS011;43150;50.986;18.208;2023-10-19T09:23:58;26.70;;;15.50;;
57303;SDS011;43150;50.986;18.208;2023-10-19T09:26:24;25.10;;;13.40;;
57303;SDS011;43150;50.986;18.208;2023-10-19T09:28:50;26.80;;;15.40;;
57303;SDS011;43150;50.986;18.208;2023-10-19T09:31:16;25.60;;;12.90;;
57303;SDS011;43150;50.986;18.208;2023-10-19T09:33:45;26.20;;;14.60;;
57303;SDS011;43150;50.986;18.208;2023-10-19T09:36:11;24.70;;;14.10;;
57303;SDS011;43150;50.986;18.208;2023-10-19T09:41:08;22.70;;;14.10;;
57303;SDS011;43150;50.986;18.208;2023-10-19T09:43:46;20.80;;;12.70;;
57303;SDS011;43150;50.986;18.208;2023-10-19T09:46:12;27.00;;;15.80;;
57303;SDS011;43150;50.986;18.208;2023-10-19T09:48:41;25.40;;;15.70;;
57303;SDS011;43150;50.986;18.208;2023-10-19T09:51:11;29.80;;;15.20;;
57303;SDS011;43150;50.986;18.208;2023-10-19T09:53:38;22.60;;;15.00;;
57303;SDS011;43150;50.986;18.208;2023-10-19T09:56:05;22.70;;;13.90;;
57303;SDS011;43150;50.986;18.208;2023-10-19T09:58:40;21.40;;;12.90;;
57303;SDS011;43150;50.986;18.208;2023-10-19T10:01:08;26.60;;;22.40;;
57303;SDS011;43150;50.986;18.208;2023-10-19T10:06:13;23.90;;;14.60;;
57303;SDS011;43150;50.986;18.208;2023-10-19T10:08:43;25.90;;;15.90;;
57303;SDS011;43150;50.986;18.208;2023-10-19T10:11:13;26.50;;;14.90;;
57303;SDS011;43150;50.986;18.208;2023-10-19T10:13:40;23.90;;;14.80;;
57303;SDS011;43150;50.986;18.208;2023-10-19T10:16:06;28.40;;;16.20;;
57303;SDS011;43150;50.986;18.208;2023-10-19T10:18:31;24.50;;;15.30;;
57303;SDS011;43150;50.986;18.208;2023-10-19T10:21:07;26.90;;;14.50;;
57303;SDS011;43150;50.986;18.208;2023-10-19T10:26:08;27.30;;;17.00;;
57303;SDS011;43150;50.986;18.208;2023-10-19T10:28:34;26.90;;;16.80;;
57303;SDS011;43150;50.986;18.208;2023-10-19T10:33:43;35.20;;;19.80;;
57303;SDS011;43150;50.986;18.208;2023-10-19T10:36:13;38.80;;;20.40;;
57303;SDS011;43150;50.986;18.208;2023-10-19T10:38:39;32.50;;;20.20;;
57303;SDS011;43150;50.986;18.208;2023-10-19T10:41:12;36.10;;;20.00;;
57303;SDS011;43150;50.986;18.208;2023-10-19T10:43:47;30.30;;;17.30;;
57303;SDS011;43150;50.986;18.208;2023-10-19T10:46:14;40.30;;;23.20;;
57303;SDS011;43150;50.986;18.208;2023-10-19T10:48:43;30.40;;;18.90;;
57303;SDS011;43150;50.986;18.208;2023-10-19T10:54:10;32.50;;;19.20;;
57303;SDS011;43150;50.986;18.208;2023-10-19T10:56:40;29.50;;;17.90;;
57303;SDS011;43150;50.986;18.208;2023-10-19T10:59:13;28.90;;;19.50;;
57303;SDS011;43150;50.986;18.208;2023-10-19T11:01:46;28.60;;;16.30;;
57303;SDS011;43150;50.986;18.208;2023-10-19T11:04:12;30.70;;;18.50;;
57303;SDS011;43150;50.986;18.208;2023-10-19T11:06:52;25.80;;;17.90;;
57303;SDS011;43150;50.986;18.208;2023-10-19T11:09:18;27.70;;;18.90;;
57303;SDS011;43150;50.986;18.208;2023-10-19T11:11:44;31.70;;;18.40;;
57303;SDS011;43150;50.986;18.208;2023-10-19T11:14:17;24.40;;;16.70;;
57303;SDS011;43150;50.986;18.208;2023-10-19T11:16:42;28.10;;;18.00;;
57303;SDS011;43150;50.986;18.208;2023-10-19T11:19:08;27.00;;;15.60;;
57303;SDS011;43150;50.986;18.208;2023-10-19T11:21:35;23.80;;;15.30;;
57303;SDS011;43150;50.986;18.208;2023-10-19T11:24:03;26.80;;;17.10;;
57303;SDS011;43150;50.986;18.208;2023-10-19T11:26:28;26.00;;;16.20;;
57303;SDS011;43150;50.986;18.208;2023-10-19T11:28:58;29.20;;;17.70;;
57303;SDS011;43150;50.986;18.208;2023-10-19T11:31:23;31.20;;;26.90;;
57303;SDS011;43150;50.986;18.208;2023-10-19T11:33:53;26.50;;;16.70;;
57303;SDS011;43150;50.986;18.208;2023-10-19T11:36:21;29.70;;;26.60;;
57303;SDS011;43150;50.986;18.208;2023-10-19T11:38:50;30.40;;;27.10;;
57303;SDS011;43150;50.986;18.208;2023-10-19T11:41:17;26.50;;;16.20;;
57303;SDS011;43150;50.986;18.208;2023-10-19T11:43:46;22.70;;;12.10;;
57303;SDS011;43150;50.986;18.208;2023-10-19T11:46:12;24.20;;;14.40;;
57303;SDS011;43150;50.986;18.208;2023-10-19T11:48:40;25.30;;;15.20;;
57303;SDS011;43150;50.986;18.208;2023-10-19T11:51:07;24.90;;;14.10;;
57303;SDS011;43150;50.986;18.208;2023-10-19T11:53:34;22.20;;;13.80;;
57303;SDS011;43150;50.986;18.208;2023-10-19T11:56:05;22.90;;;13.70;;
57303;SDS011;43150;50.986;18.208;2023-10-19T11:58:31;19.90;;;12.80;;
57303;SDS011;43150;50.986;18.208;2023-10-19T12:01:00;26.60;;;23.60;;
57303;SDS011;43150;50.986;18.208;2023-10-19T12:03:26;30.70;;;27.10;;
57303;SDS011;43150;50.986;18.208;2023-10-19T12:05:52;23.60;;;16.00;;
57303;SDS011;43150;50.986;18.208;2023-10-19T12:08:21;25.40;;;16.50;;
57303;SDS011;43150;50.986;18.208;2023-10-19T12:10:47;24.10;;;15.60;;
57303;SDS011;43150;50.986;18.208;2023-10-19T12:13:43;26.20;;;14.30;;
57303;SDS011;43150;50.986;18.208;2023-10-19T12:16:09;22.20;;;15.00;;
57303;SDS011;43150;50.986;18.208;2023-10-19T12:18:44;26.60;;;17.40;;
57303;SDS011;43150;50.986;18.208;2023-10-19T12:21:09;24.20;;;14.80;;
57303;SDS011;43150;50.986;18.208;2023-10-19T12:23:41;25.90;;;16.70;;
57303;SDS011;43150;50.986;18.208;2023-10-19T12:26:08;23.70;;;15.00;;
57303;SDS011;43150;50.986;18.208;2023-10-19T12:28:37;19.70;;;12.60;;
57303;SDS011;43150;50.986;18.208;2023-10-19T12:31:03;29.40;;;17.50;;
57303;SDS011;43150;50.986;18.208;2023-10-19T12:33:30;24.10;;;15.00;;
57303;SDS011;43150;50.986;18.208;2023-10-19T12:35:56;21.10;;;13.60;;
57303;SDS011;43150;50.986;18.208;2023-10-19T12:38:24;25.50;;;15.60;;
57303;SDS011;43150;50.986;18.208;2023-10-19T12:40:51;24.10;;;15.80;;
57303;SDS011;43150;50.986;18.208;2023-10-19T12:43:17;20.70;;;14.30;;
57303;SDS011;43150;50.986;18.208;2023-10-19T12:45:47;23.10;;;16.20;;
57303;SDS011;43150;50.986;18.208;2023-10-19T12:48:19;24.80;;;16.10;;
57303;SDS011;43150;50.986;18.208;2023-10-19T12:50:44;22.30;;;14.60;;
57303;SDS011;43150;50.986;18.208;2023-10-19T12:53:10;27.00;;;15.60;;
57303;SDS011;43150;50.986;18.208;2023-10-19T12:55:36;24.30;;;18.20;;
57303;SDS011;43150;50.986;18.208;2023-10-19T12:58:06;23.30;;;16.50;;
57303;SDS011;43150;50.986;18.208;2023-10-19T13:00:37;23.00;;;12.70;;
57303;SDS011;43150;50.986;18.208;2023-10-19T13:03:14;22.50;;;15.50;;
57303;SDS011;43150;50.986;18.208;2023-10-19T13:05:41;24.00;;;16.40;;
57303;SDS011;43150;50.986;18.208;2023-10-19T13:08:08;23.30;;;15.40;;
57303;SDS011;43150;50.986;18.208;2023-10-19T13:10:34;20.20;;;12.30;;
57303;SDS011;43150;50.986;18.208;2023-10-19T13:13:02;19.40;;;12.70;;
57303;SDS011;43150;50.986;18.208;2023-10-19T13:15:29;31.10;;;27.90;;
57303;SDS011;43150;50.986;18.208;2023-10-19T13:17:56;22.50;;;15.20;;
57303;SDS011;43150;50.986;18.208;2023-10-19T13:20:26;20.90;;;14.30;;
57303;SDS011;43150;50.986;18.208;2023-10-19T13:22:52;22.50;;;16.40;;
57303;SDS011;43150;50.986;18.208;2023-10-19T13:25:17;23.50;;;15.50;;
57303;SDS011;43150;50.986;18.208;2023-10-19T13:27:43;21.30;;;14.80;;
57303;SDS011;43150;50.986;18.208;2023-10-19T13:30:10;23.00;;;15.30;;
57303;SDS011;43150;50.986;18.208;2023-10-19T13:32:36;26.90;;;17.40;;
57303;SDS011;43150;50.986;18.208;2023-10-19T13:35:05;28.80;;;17.80;;
57303;SDS011;43150;50.986;18.208;2023-10-19T13:37:32;19.70;;;13.30;;
57303;SDS011;43150;50.986;18.208;2023-10-19T13:39:57;25.50;;;17.10;;
57303;SDS011;43150;50.986;18.208;2023-10-19T13:42:27;28.30;;;18.90;;
57303;SDS011;43150;50.986;18.208;2023-10-19T13:44:54;28.90;;;19.30;;
57303;SDS011;43150;50.986;18.208;2023-10-19T13:47:19;28.20;;;19.10;;
57303;SDS011;43150;50.986;18.208;2023-10-19T13:52:36;26.90;;;17.60;;
57303;SDS011;43150;50.986;18.208;2023-10-19T13:55:02;31.50;;;19.20;;
57303;SDS011;43150;50.986;18.208;2023-10-19T13:57:28;30.40;;;21.10;;
57303;SDS011;43150;50.986;18.208;2023-10-19T13:59:54;39.60;;;35.50;;
57303;SDS011;43150;50.986;18.208;2023-10-19T14:02:20;38.40;;;34.30;;
57303;SDS011;43150;50.986;18.208;2023-10-19T14:07:34;36.60;;;32.90;;
57303;SDS011;43150;50.986;18.208;2023-10-19T14:10:00;33.10;;;22.10;;
57303;SDS011;43150;50.986;18.208;2023-10-19T14:12:25;29.20;;;18.70;;
57303;SDS011;43150;50.986;18.208;2023-10-19T14:14:50;30.90;;;19.50;;
57303;SDS011;43150;50.986;18.208;2023-10-19T14:17:16;27.20;;;18.50;;
57303;SDS011;43150;50.986;18.208;2023-10-19T14:19:42;30.20;;;19.50;;
57303;SDS011;43150;50.986;18.208;2023-10-19T14:22:10;38.70;;;34.70;;
57303;SDS011;43150;50.986;18.208;2023-10-19T14:24:35;39.20;;;35.20;;
57303;SDS011;43150;50.986;18.208;2023-10-19T14:27:01;39.70;;;35.50;;
57303;SDS011;43150;50.986;18.208;2023-10-19T14:29:26;38.10;;;33.90;;
57303;SDS011;43150;50.986;18.208;2023-10-19T14:31:51;24.90;;;15.20;;
57303;SDS011;43150;50.986;18.208;2023-10-19T14:34:17;36.50;;;32.70;;
57303;SDS011;43150;50.986;18.208;2023-10-19T14:36:43;30.40;;;19.00;;
57303;SDS011;43150;50.986;18.208;2023-10-19T14:39:08;40.10;;;35.80;;